createdAt,value
2018-03-25T00:01:53.339Z,0.97
2018-03-25T00:04:22.514Z,0.66
2018-03-25T00:06:52.026Z,0.98
2018-03-25T00:09:21.244Z,0.95
2018-03-25T00:11:50.435Z,1.20
2018-03-25T00:14:19.958Z,1.39
2018-03-25T00:16:49.744Z,1.33
2018-03-25T00:19:18.930Z,1.04
2018-03-25T00:21:48.119Z,0.72
2018-03-25T00:24:17.611Z,1.01
2018-03-25T00:26:47.149Z,0.76
2018-03-25T00:29:16.607Z,0.51
2018-03-25T00:31:46.022Z,0.55
2018-03-25T00:34:15.692Z,0.27
2018-03-25T00:36:45.247Z,0.12
2018-03-25T00:39:14.936Z,0.25
2018-03-25T00:41:44.127Z,0.59
2018-03-25T00:44:13.925Z,0.45
2018-03-25T00:46:43.227Z,0.53
2018-03-25T00:49:12.804Z,0.89
2018-03-25T00:51:42.354Z,1.18
2018-03-25T00:54:12.394Z,1.57
2018-03-25T00:56:41.964Z,1.58
2018-03-25T00:59:11.193Z,1.54
2018-03-25T01:01:41.417Z,1.60
2018-03-25T01:04:12.247Z,1.60
2018-03-25T01:06:42.239Z,1.71
2018-03-25T01:09:11.841Z,1.59
2018-03-25T01:11:41.270Z,1.68
2018-03-25T01:14:10.652Z,1.65
2018-03-25T01:16:39.896Z,1.43
2018-03-25T01:19:09.587Z,1.37
2018-03-25T01:21:39.337Z,1.16
2018-03-25T01:24:08.867Z,1.14
2018-03-25T01:26:38.191Z,1.34
2018-03-25T01:29:08.149Z,1.30
2018-03-25T01:31:37.782Z,1.37
2018-03-25T01:34:07.035Z,1.34
2018-03-25T01:36:36.613Z,1.30
2018-03-25T01:39:06.277Z,1.37
2018-03-25T01:41:36.006Z,1.33
2018-03-25T01:44:05.648Z,1.17
2018-03-25T01:46:35.639Z,1.28
2018-03-25T01:49:05.359Z,1.32
2018-03-25T01:51:34.901Z,1.33
2018-03-25T01:54:04.463Z,1.22
2018-03-25T01:56:34.260Z,1.03
2018-03-25T01:59:03.593Z,0.98
2018-03-25T02:01:32.813Z,0.78
2018-03-25T02:04:03.401Z,1.02
2018-03-25T02:06:33.242Z,1.19
2018-03-25T02:09:03.094Z,1.08
2018-03-25T02:11:33.529Z,1.41
2018-03-25T02:14:03.331Z,1.10
2018-03-25T02:16:32.975Z,1.37
2018-03-25T02:19:03.391Z,1.20
2018-03-25T02:21:32.904Z,1.13
2018-03-25T02:24:02.472Z,1.21
2018-03-25T02:26:32.013Z,1.06
2018-03-25T02:29:01.531Z,1.10
2018-03-25T02:31:31.026Z,1.15
2018-03-25T02:34:00.688Z,1.29
2018-03-25T02:36:30.119Z,1.17
2018-03-25T02:38:59.352Z,1.15
2018-03-25T02:41:29.469Z,1.18
2018-03-25T02:43:59.037Z,1.12
2018-03-25T02:46:28.508Z,1.10
2018-03-25T02:48:58.410Z,1.17
2018-03-25T02:51:27.554Z,1.06
2018-03-25T02:53:56.947Z,1.00
2018-03-25T02:56:26.980Z,1.02
2018-03-25T02:58:56.410Z,0.65
2018-03-25T03:01:25.970Z,0.56
2018-03-25T03:03:56.092Z,0.62
2018-03-25T03:06:25.520Z,0.58
2018-03-25T03:08:55.016Z,0.95
2018-03-25T03:11:25.245Z,0.63
2018-03-25T03:13:54.743Z,0.62
2018-03-25T03:16:24.317Z,0.57
2018-03-25T03:18:54.260Z,0.87
2018-03-25T03:21:24.720Z,0.60
2018-03-25T03:23:54.102Z,0.64
2018-03-25T03:26:23.953Z,0.57
2018-03-25T03:28:53.251Z,0.46
2018-03-25T03:31:22.612Z,0.47
2018-03-25T03:33:52.270Z,0.54
2018-03-25T03:36:21.875Z,0.53
2018-03-25T03:38:51.344Z,0.50
2018-03-25T03:41:21.215Z,0.57
2018-03-25T03:43:50.791Z,0.62
2018-03-25T03:46:20.111Z,0.49
2018-03-25T03:48:49.930Z,0.80
2018-03-25T03:51:19.515Z,0.78
2018-03-25T03:53:48.954Z,0.44
2018-03-25T03:56:18.612Z,0.37
2018-03-25T03:58:47.952Z,0.58
2018-03-25T04:01:17.515Z,0.35
2018-03-25T04:03:47.047Z,0.35
2018-03-25T04:06:16.527Z,0.36
2018-03-25T04:08:46.087Z,0.33
2018-03-25T04:11:17.964Z,0.67
2018-03-25T04:13:47.450Z,0.30
2018-03-25T04:16:17.045Z,0.26
2018-03-25T04:18:46.511Z,0.46
2018-03-25T04:21:15.654Z,0.23
2018-03-25T04:23:45.148Z,0.23
2018-03-25T04:26:15.235Z,0.21
2018-03-25T04:28:44.630Z,0.17
2018-03-25T04:31:14.118Z,-0.20
2018-03-25T04:33:43.740Z,-0.41
2018-03-25T04:36:13.312Z,-1.06
2018-03-25T04:38:42.745Z,-1.26
2018-03-25T04:41:12.163Z,-1.34
2018-03-25T04:43:41.671Z,-0.94
2018-03-25T04:46:11.502Z,-0.57
2018-03-25T04:48:41.088Z,-0.84
2018-03-25T04:51:10.275Z,-1.25
2018-03-25T04:53:39.803Z,-1.37
2018-03-25T04:56:09.205Z,-1.08
2018-03-25T04:58:38.708Z,-1.12
2018-03-25T05:01:08.503Z,-0.94
2018-03-25T05:03:38.118Z,-0.87
2018-03-25T05:06:07.528Z,-0.74
2018-03-25T05:08:37.607Z,-0.64
2018-03-25T05:11:07.148Z,-0.85
2018-03-25T05:13:36.567Z,-0.82
2018-03-25T05:16:06.373Z,-0.38
2018-03-25T05:18:35.851Z,-0.12
2018-03-25T05:21:05.588Z,0.26
2018-03-25T05:23:35.707Z,0.23
2018-03-25T05:26:05.063Z,0.03
2018-03-25T05:28:34.389Z,-0.05
2018-03-25T05:31:04.474Z,0.14
2018-03-25T05:33:34.426Z,0.26
2018-03-25T05:36:03.953Z,0.11
2018-03-25T05:38:33.707Z,0.00
2018-03-25T05:41:03.163Z,0.37
2018-03-25T05:43:32.654Z,0.08
2018-03-25T05:46:02.718Z,0.03
2018-03-25T05:48:32.286Z,0.07
2018-03-25T05:51:01.864Z,-0.06
2018-03-25T05:53:31.970Z,-0.33
2018-03-25T05:56:01.467Z,-0.29
2018-03-25T05:58:30.886Z,0.40
2018-03-25T06:01:00.774Z,0.25
2018-03-25T06:03:30.288Z,0.29
2018-03-25T06:05:59.477Z,0.35
2018-03-25T06:08:29.215Z,0.42
2018-03-25T06:10:58.570Z,0.46
2018-03-25T06:13:28.016Z,0.57
2018-03-25T06:15:58.163Z,0.55
2018-03-25T06:18:27.763Z,0.84
2018-03-25T06:20:57.438Z,1.06
2018-03-25T06:23:27.290Z,0.75
2018-03-25T06:25:56.991Z,0.98
2018-03-25T06:28:26.447Z,1.03
2018-03-25T06:30:56.158Z,0.86
2018-03-25T06:33:25.650Z,1.05
2018-03-25T06:35:54.831Z,0.96
2018-03-25T06:38:24.721Z,1.26
2018-03-25T06:40:54.389Z,1.10
2018-03-25T06:43:23.787Z,0.92
2018-03-25T06:45:53.136Z,0.89
2018-03-25T06:48:22.476Z,1.20
2018-03-25T06:50:52.008Z,1.32
2018-03-25T06:53:22.057Z,1.66
2018-03-25T06:55:51.707Z,1.91
2018-03-25T06:58:21.134Z,1.81
2018-03-25T07:00:50.390Z,1.70
2018-03-25T07:03:19.589Z,1.59
2018-03-25T07:05:49.034Z,2.05
2018-03-25T07:08:19.138Z,2.19
2018-03-25T07:10:48.559Z,2.20
2018-03-25T07:13:17.883Z,2.23
2018-03-25T07:15:47.114Z,2.21
2018-03-25T07:18:16.375Z,2.72
2018-03-25T07:20:45.602Z,2.87
2018-03-25T07:23:15.257Z,2.87
2018-03-25T07:25:44.411Z,2.63
2018-03-25T07:28:13.670Z,2.94
2018-03-25T07:30:42.927Z,2.60
2018-03-25T07:35:44.244Z,2.60
2018-03-25T07:38:13.443Z,2.88
2018-03-25T07:40:42.683Z,3.36
2018-03-25T07:43:12.224Z,3.38
2018-03-25T07:45:41.373Z,3.41
2018-03-25T07:48:10.566Z,4.04
2018-03-25T07:50:40.111Z,4.32
2018-03-25T07:53:09.371Z,4.55
2018-03-25T07:55:38.492Z,4.41
2018-03-25T07:58:08.249Z,3.70
2018-03-25T08:00:37.703Z,4.69
2018-03-25T08:03:07.221Z,4.87
2018-03-25T08:05:36.890Z,5.29
2018-03-25T08:08:06.171Z,5.16
2018-03-25T08:10:35.528Z,5.07
2018-03-25T08:13:05.347Z,5.42
2018-03-25T08:15:34.877Z,5.74
2018-03-25T08:18:04.195Z,5.54
2018-03-25T08:20:33.769Z,5.18
2018-03-25T08:23:03.245Z,4.27
2018-03-25T08:25:32.784Z,5.08
2018-03-25T08:28:02.632Z,5.08
2018-03-25T08:30:31.814Z,5.28
2018-03-25T08:33:01.043Z,6.11
2018-03-25T08:35:31.155Z,5.83
2018-03-25T08:38:00.776Z,6.32
2018-03-25T08:40:29.957Z,6.45
2018-03-25T08:42:59.855Z,6.26
2018-03-25T08:45:29.016Z,6.36
2018-03-25T08:47:58.588Z,6.98
2018-03-25T08:50:29.671Z,6.00
2018-03-25T08:52:59.099Z,5.12
2018-03-25T08:55:29.052Z,5.79
2018-03-25T08:57:58.604Z,6.68
2018-03-25T09:00:28.211Z,6.27
2018-03-25T09:02:58.407Z,5.47
2018-03-25T09:05:27.583Z,5.33
2018-03-25T09:07:57.178Z,5.66
2018-03-25T09:10:26.416Z,6.33
2018-03-25T09:12:55.594Z,6.59
2018-03-25T09:15:24.756Z,5.91
2018-03-25T09:17:54.380Z,6.59
2018-03-25T09:20:23.564Z,7.25
2018-03-25T09:22:52.791Z,6.65
2018-03-25T09:25:22.079Z,6.51
2018-03-25T09:27:52.481Z,6.92
2018-03-25T09:30:21.885Z,7.28
2018-03-25T09:32:51.379Z,7.71
2018-03-25T09:35:21.430Z,7.38
2018-03-25T09:37:52.719Z,6.78
2018-03-25T09:40:21.985Z,6.81
2018-03-25T09:42:51.455Z,6.66
2018-03-25T09:45:20.977Z,6.68
2018-03-25T09:47:50.592Z,7.37
2018-03-25T09:50:19.988Z,7.83
2018-03-25T09:52:49.710Z,8.27
2018-03-25T09:55:19.209Z,8.78
2018-03-25T09:57:48.844Z,7.44
2018-03-25T10:00:27.559Z,8.95
2018-03-25T10:02:59.669Z,9.92
2018-03-25T10:05:29.197Z,10.65
2018-03-25T10:07:58.371Z,10.60
2018-03-25T10:10:27.585Z,10.24
2018-03-25T10:12:57.191Z,9.38
2018-03-25T10:15:26.625Z,8.47
2018-03-25T10:17:55.787Z,9.28
2018-03-25T10:20:24.968Z,8.28
2018-03-25T10:22:54.138Z,10.19
2018-03-25T10:25:23.574Z,10.32
2018-03-25T10:27:53.282Z,8.80
2018-03-25T10:30:22.703Z,8.11
2018-03-25T10:32:51.944Z,8.95
2018-03-25T10:35:21.327Z,8.59
2018-03-25T10:37:50.742Z,9.13
2018-03-25T10:40:20.187Z,8.59
2018-03-25T10:42:49.723Z,9.92
2018-03-25T10:45:19.296Z,9.68
2018-03-25T10:47:49.287Z,11.09
2018-03-25T10:50:18.466Z,9.25
2018-03-25T10:52:47.647Z,10.16
2018-03-25T10:55:17.138Z,11.58
2018-03-25T10:57:46.818Z,9.92
2018-03-25T11:00:16.007Z,11.65
2018-03-25T11:02:45.528Z,12.00
2018-03-25T11:05:14.942Z,9.16
2018-03-25T11:07:44.148Z,9.43
2018-03-25T11:10:14.117Z,10.39
2018-03-25T11:12:43.534Z,9.63
2018-03-25T11:15:12.858Z,10.63
2018-03-25T11:17:42.777Z,9.76
2018-03-25T11:20:12.251Z,9.27
2018-03-25T11:22:41.982Z,10.43
2018-03-25T11:25:11.472Z,11.66
2018-03-25T11:27:40.699Z,12.31
2018-03-25T11:30:10.153Z,12.36
2018-03-25T11:32:39.740Z,11.08
2018-03-25T11:35:09.119Z,12.62
2018-03-25T11:37:38.462Z,10.70
2018-03-25T11:40:08.399Z,12.24
2018-03-25T11:42:37.658Z,10.08
2018-03-25T11:45:07.124Z,9.60
2018-03-25T11:47:36.680Z,10.71
2018-03-25T11:50:06.148Z,9.98
2018-03-25T11:52:35.668Z,10.27
2018-03-25T11:55:05.845Z,10.79
2018-03-25T11:57:35.362Z,10.79
2018-03-25T12:00:05.177Z,11.23
2018-03-25T12:02:34.862Z,10.17
2018-03-25T12:05:04.134Z,9.78
2018-03-25T12:07:33.692Z,9.98
2018-03-25T12:10:03.301Z,11.09
2018-03-25T12:12:32.651Z,12.61
2018-03-25T12:15:01.956Z,10.89
2018-03-25T12:17:31.201Z,11.34
2018-03-25T12:20:00.410Z,12.18
2018-03-25T12:22:30.186Z,12.73
2018-03-25T12:24:59.425Z,11.20
2018-03-25T12:27:28.977Z,10.71
2018-03-25T12:29:59.191Z,10.73
2018-03-25T12:32:28.380Z,12.14
2018-03-25T12:34:57.902Z,12.47
2018-03-25T12:37:27.715Z,10.99
2018-03-25T12:39:57.866Z,11.58
2018-03-25T12:42:27.736Z,10.96
2018-03-25T12:44:58.253Z,11.81
2018-03-25T12:47:27.571Z,12.45
2018-03-25T12:49:56.826Z,11.31
2018-03-25T12:52:26.471Z,11.72
2018-03-25T12:54:55.738Z,11.25
2018-03-25T12:57:25.843Z,11.02
2018-03-25T12:59:56.398Z,10.27
2018-03-25T13:02:25.638Z,10.39
2018-03-25T13:04:56.753Z,11.91
2018-03-25T13:07:26.804Z,12.30
2018-03-25T13:09:56.027Z,12.61
2018-03-25T13:12:25.387Z,12.76
2018-03-25T13:14:54.964Z,11.66
2018-03-25T13:17:24.291Z,10.49
2018-03-25T13:19:53.505Z,11.68
2018-03-25T13:22:22.830Z,11.86
2018-03-25T13:24:52.443Z,11.82
2018-03-25T13:27:21.705Z,11.31
2018-03-25T13:29:51.248Z,11.34
2018-03-25T13:32:20.500Z,10.88
2018-03-25T13:34:49.750Z,10.56
2018-03-25T13:37:19.136Z,10.96
2018-03-25T13:39:52.172Z,10.93
2018-03-25T13:42:21.421Z,10.79
2018-03-25T13:44:50.938Z,10.55
2018-03-25T13:47:20.206Z,10.80
2018-03-25T13:49:49.944Z,10.68
2018-03-25T13:52:19.210Z,10.87
2018-03-25T13:54:48.424Z,10.91
2018-03-25T13:57:17.923Z,11.01
2018-03-25T13:59:47.165Z,11.36
2018-03-25T14:02:16.508Z,11.07
2018-03-25T14:04:46.011Z,11.01
2018-03-25T14:07:16.880Z,10.61
2018-03-25T14:09:47.221Z,11.26
2018-03-25T14:12:19.395Z,10.79
2018-03-25T14:14:49.824Z,11.09
2018-03-25T14:17:20.118Z,11.31
2018-03-25T14:19:51.929Z,11.73
2018-03-25T14:22:21.310Z,11.39
2018-03-25T14:24:50.506Z,11.55
2018-03-25T14:27:19.975Z,11.18
2018-03-25T14:29:49.167Z,10.78
2018-03-25T14:32:18.554Z,11.28
2018-03-25T14:34:48.032Z,11.15
2018-03-25T14:37:17.883Z,10.76
2018-03-25T14:39:47.184Z,10.97
2018-03-25T14:42:16.696Z,11.00
2018-03-25T14:44:45.889Z,11.12
2018-03-25T14:47:15.307Z,11.17
2018-03-25T14:49:45.097Z,11.06
2018-03-25T14:52:14.642Z,11.18
2018-03-25T14:54:44.207Z,10.83
2018-03-25T14:57:13.927Z,10.91
2018-03-25T14:59:43.415Z,11.21
2018-03-25T15:02:13.548Z,11.34
2018-03-25T15:04:43.107Z,11.24
2018-03-25T15:07:13.050Z,11.23
2018-03-25T15:09:42.325Z,11.58
2018-03-25T15:12:11.861Z,11.24
2018-03-25T15:14:41.551Z,11.23
2018-03-25T15:17:10.884Z,11.28
2018-03-25T15:19:40.519Z,11.55
2018-03-25T15:22:09.965Z,11.29
2018-03-25T15:24:39.239Z,11.36
2018-03-25T15:27:08.954Z,11.13
2018-03-25T15:29:38.272Z,11.10
2018-03-25T15:32:07.948Z,11.16
2018-03-25T15:34:37.244Z,11.12
2018-03-25T15:37:06.823Z,11.08
2018-03-25T15:39:36.338Z,11.08
2018-03-25T15:42:06.379Z,10.76
2018-03-25T15:44:35.909Z,10.93
2018-03-25T15:47:05.563Z,10.74
2018-03-25T15:49:34.963Z,11.04
2018-03-25T15:52:04.372Z,10.81
2018-03-25T15:54:34.009Z,10.89
2018-03-25T15:57:04.918Z,10.77
2018-03-25T15:59:34.321Z,10.93
2018-03-25T16:02:03.583Z,10.95
2018-03-25T16:04:33.112Z,11.22
2018-03-25T16:07:02.423Z,11.38
2018-03-25T16:09:31.635Z,10.96
2018-03-25T16:12:00.829Z,11.23
2018-03-25T16:14:30.112Z,10.80
2018-03-25T16:16:59.924Z,10.74
2018-03-25T16:19:29.171Z,10.72
2018-03-25T16:21:58.421Z,10.54
2018-03-25T16:24:27.774Z,10.63
2018-03-25T16:26:57.389Z,10.52
2018-03-25T16:29:26.603Z,10.64
2018-03-25T16:31:56.368Z,10.52
2018-03-25T16:34:25.614Z,10.53
2018-03-25T16:36:55.435Z,10.40
2018-03-25T16:39:24.752Z,10.64
2018-03-25T16:41:54.448Z,10.62
2018-03-25T16:44:23.884Z,10.35
2018-03-25T16:46:53.260Z,10.22
2018-03-25T16:49:22.751Z,10.53
2018-03-25T16:51:52.458Z,10.26
2018-03-25T16:54:21.650Z,10.19
2018-03-25T16:56:50.875Z,9.98
2018-03-25T16:59:20.376Z,10.48
2018-03-25T17:01:49.619Z,9.95
2018-03-25T17:04:18.807Z,9.77
2018-03-25T17:06:48.295Z,9.57
2018-03-25T17:09:17.527Z,9.48
2018-03-25T17:11:46.874Z,9.53
2018-03-25T17:14:16.760Z,9.74
2018-03-25T17:16:46.255Z,9.64
2018-03-25T17:19:15.583Z,9.72
2018-03-25T17:21:45.334Z,9.53
2018-03-25T17:24:14.525Z,9.59
2018-03-25T17:26:43.750Z,9.74
2018-03-25T17:29:13.278Z,9.74
2018-03-25T17:31:42.532Z,9.47
2018-03-25T17:34:11.687Z,9.20
2018-03-25T17:36:41.147Z,9.11
2018-03-25T17:39:10.330Z,8.96
2018-03-25T17:41:39.512Z,9.21
2018-03-25T17:44:09.079Z,9.00
2018-03-25T17:46:38.243Z,8.84
2018-03-25T17:49:07.427Z,8.66
2018-03-25T17:51:36.926Z,8.64
2018-03-25T17:54:06.147Z,8.82
2018-03-25T17:56:35.316Z,8.96
2018-03-25T17:59:04.795Z,8.93
2018-03-25T18:01:34.151Z,8.81
2018-03-25T18:04:03.445Z,8.78
2018-03-25T18:12:37.619Z,8.49
2018-03-25T18:15:06.878Z,8.41
2018-03-25T18:17:36.070Z,8.17
2018-03-25T18:20:05.670Z,6.85
2018-03-25T18:22:34.860Z,6.68
2018-03-25T18:25:04.449Z,6.77
2018-03-25T18:27:33.944Z,6.55
2018-03-25T18:30:03.310Z,6.56
2018-03-25T18:32:32.541Z,6.94
2018-03-25T18:35:02.080Z,7.27
2018-03-25T18:37:31.675Z,7.18
2018-03-25T18:40:00.923Z,6.89
2018-03-25T18:42:30.452Z,6.80
2018-03-25T18:44:59.655Z,6.78
2018-03-25T18:47:28.817Z,6.79
2018-03-25T18:49:58.387Z,6.85
2018-03-25T18:52:27.588Z,7.02
2018-03-25T18:54:56.802Z,7.39
2018-03-25T18:57:26.802Z,7.01
2018-03-25T18:59:56.239Z,6.67
2018-03-25T19:02:26.374Z,6.87
2018-03-25T19:04:57.050Z,7.32
2018-03-25T19:07:27.023Z,7.48
2018-03-25T19:09:56.485Z,7.58
2018-03-25T19:12:26.475Z,7.62
2018-03-25T19:14:55.799Z,7.30
2018-03-25T19:17:25.222Z,6.76
2018-03-25T19:19:54.906Z,6.81
2018-03-25T19:22:24.248Z,6.57
2018-03-25T19:24:53.544Z,6.62
2018-03-25T19:27:22.826Z,6.48
2018-03-25T19:29:52.620Z,6.87
2018-03-25T19:32:22.186Z,7.10
2018-03-25T19:34:51.963Z,7.20
2018-03-25T19:37:21.227Z,7.09
2018-03-25T19:39:50.864Z,6.64
2018-03-25T19:42:20.155Z,6.91
2018-03-25T19:44:49.337Z,6.79
2018-03-25T19:47:18.703Z,7.21
2018-03-25T19:49:47.952Z,7.34
2018-03-25T19:52:17.240Z,7.24
2018-03-25T19:54:46.871Z,6.89
2018-03-25T19:57:16.088Z,6.80
2018-03-25T19:59:45.430Z,6.92
2018-03-25T20:02:15.605Z,7.10
2018-03-25T20:04:45.118Z,7.32
2018-03-25T20:07:14.704Z,6.93
2018-03-25T20:09:44.256Z,6.99
2018-03-25T20:12:17.975Z,7.23
2018-03-25T20:14:47.460Z,7.47
2018-03-25T20:17:16.824Z,7.56
2018-03-25T20:19:46.352Z,7.56
2018-03-25T20:22:21.113Z,7.32
2018-03-25T20:24:50.743Z,6.66
2018-03-25T20:27:24.644Z,6.44
2018-03-25T20:29:54.930Z,6.46
2018-03-25T20:32:25.170Z,7.23
2018-03-25T20:34:54.713Z,8.01
2018-03-25T20:37:25.328Z,7.69
2018-03-25T20:39:56.224Z,6.99
2018-03-25T20:42:26.820Z,6.60
2018-03-25T20:44:56.458Z,6.68
2018-03-25T20:47:25.919Z,7.06
2018-03-25T20:49:55.434Z,6.63
2018-03-25T20:52:25.491Z,6.26
2018-03-25T20:54:55.113Z,6.17
2018-03-25T20:57:24.796Z,6.17
2018-03-25T20:59:54.101Z,6.49
2018-03-25T21:02:23.365Z,6.30
2018-03-25T21:04:52.923Z,6.23
2018-03-25T21:07:22.392Z,6.14
2018-03-25T21:09:51.701Z,6.21
2018-03-25T21:12:21.280Z,6.55
2018-03-25T21:14:50.791Z,6.46
2018-03-25T21:17:20.716Z,6.88
2018-03-25T21:19:50.234Z,7.29
2018-03-25T21:22:20.037Z,7.50
2018-03-25T21:24:49.580Z,7.43
2018-03-25T21:27:20.097Z,6.97
2018-03-25T21:29:49.361Z,6.97
2018-03-25T21:32:18.909Z,7.49
2018-03-25T21:34:50.264Z,7.22
2018-03-25T21:37:19.988Z,7.40
2018-03-25T21:39:50.338Z,6.58
2018-03-25T21:42:19.614Z,7.08
2018-03-25T21:44:48.947Z,6.53
2018-03-25T21:47:18.452Z,6.93
2018-03-25T21:49:47.671Z,7.21
2018-03-25T21:52:16.988Z,6.53
2018-03-25T21:54:46.692Z,7.11
2018-03-25T21:57:16.740Z,7.64
2018-03-25T21:59:46.335Z,7.52
2018-03-25T22:02:17.933Z,7.66
2018-03-25T22:04:47.805Z,7.39
2018-03-25T22:07:17.139Z,7.32
2018-03-25T22:09:47.579Z,7.06
2018-03-25T22:12:16.992Z,7.28
2018-03-25T22:14:46.207Z,7.52
2018-03-25T22:17:15.933Z,7.21
2018-03-25T22:19:45.452Z,6.80
2018-03-25T22:22:15.673Z,7.16
2018-03-25T22:24:45.447Z,7.33
2018-03-25T22:27:15.238Z,7.12
2018-03-25T22:29:45.335Z,6.88
2018-03-25T22:32:15.457Z,7.29
2018-03-25T22:34:45.199Z,7.43
2018-03-25T22:37:15.118Z,7.45
2018-03-25T22:39:46.429Z,7.45
2018-03-25T22:42:16.015Z,7.23
2018-03-25T22:44:45.558Z,6.84
2018-03-25T22:47:15.594Z,6.86
2018-03-25T22:49:45.176Z,7.23
2018-03-25T22:52:14.669Z,7.37
2018-03-25T22:54:44.415Z,7.42
2018-03-25T22:57:14.259Z,7.37
2018-03-25T22:59:43.620Z,7.48
2018-03-25T23:02:13.814Z,7.44
2018-03-25T23:04:43.367Z,7.39
2018-03-25T23:07:12.824Z,7.39
2018-03-25T23:09:42.756Z,7.47
2018-03-25T23:12:12.157Z,7.53
2018-03-25T23:14:41.752Z,7.50
2018-03-25T23:17:11.350Z,7.53
2018-03-25T23:19:40.587Z,7.49
2018-03-25T23:22:14.382Z,7.55
2018-03-25T23:24:43.731Z,7.60
2018-03-25T23:27:12.954Z,7.52
2018-03-25T23:29:42.491Z,7.55
2018-03-25T23:32:12.448Z,7.48
2018-03-25T23:34:41.676Z,7.55
2018-03-25T23:37:11.211Z,7.36
2018-03-25T23:39:40.768Z,7.43
2018-03-25T23:42:09.975Z,7.41
2018-03-25T23:44:39.261Z,7.35
2018-03-25T23:47:08.547Z,7.43
2018-03-25T23:49:37.816Z,7.35
2018-03-25T23:52:07.379Z,7.16
2018-03-25T23:54:36.628Z,7.01
2018-03-25T23:57:06.256Z,6.83
2018-03-25T23:59:35.467Z,6.73
